Time;durP1;ratioP1;P1;durP2;ratioP2;P2;SDS_P1;SDS_P2;PMS_P1;PMS_P2;Temp;Humidity;BMP_temperature;BMP_pressure;BME280_temperature;BME280_humidity;BME280_pressure;Samples;Min_cycle;Max_cycle;Signal;HPM_P1;HPM_P2
2023/11/15 00:02:19;;;;;;;6.20;3.23;;;;;;;;;;4956569;28;20218;-84
2023/11/15 00:04:45;;;;;;;9.73;3.70;;;;;;;;;;4947263;29;20261;-86
2023/11/15 00:07:12;;;;;;;5.13;2.33;;;;;;;;;;4918127;28;20221;-85
2023/11/15 00:09:40;;;;;;;4.27;2.10;;;;;;;;;;4935184;28;20221;-84
2023/11/15 00:12:06;;;;;;;4.20;2.13;;;;;;;;;;4918290;28;20218;-83
2023/11/15 00:14:32;;;;;;;2.77;1.73;;;;;;;;;;4967907;28;20427;-83
2023/11/15 00:17:02;;;;;;;7.33;2.40;;;;;;;;;;4953489;28;20703;-84
2023/11/15 00:19:30;;;;;;;5.63;1.87;;;;;;;;;;4966040;28;20222;-84
2023/11/15 00:21:57;;;;;;;5.30;2.20;;;;;;;;;;4971288;28;20304;-84
2023/11/15 00:24:25;;;;;;;5.17;2.30;;;;;;;;;;4937260;28;20227;-86
2023/11/15 00:26:50;;;;;;;3.83;2.37;;;;;;;;;;4955633;28;20609;-85
2023/11/15 00:29:21;;;;;;;3.77;1.80;;;;;;;;;;4947578;28;20229;-84
2023/11/15 00:31:47;;;;;;;7.03;2.40;;;;;;;;;;4939887;28;20652;-84
2023/11/15 00:34:12;;;;;;;6.73;2.70;;;;;;;;;;4985638;28;20218;-83
2023/11/15 00:36:45;;;;;;;4.53;2.40;;;;;;;;;;4950620;28;20229;-86
2023/11/15 00:39:13;;;;;;;4.57;2.37;;;;;;;;;;4970626;28;20271;-84
2023/11/15 00:41:40;;;;;;;3.97;2.43;;;;;;;;;;4940509;28;20249;-85
2023/11/15 00:44:08;;;;;;;4.47;2.03;;;;;;;;;;4957225;28;20234;-85
2023/11/15 00:46:36;;;;;;;8.30;6.13;;;;;;;;;;4969872;28;20313;-83
2023/11/15 00:49:02;;;;;;;5.77;5.03;;;;;;;;;;4956040;28;20253;-85
2023/11/15 00:51:30;;;;;;;7.10;5.07;;;;;;;;;;4939061;29;20239;-84
2023/11/15 00:53:56;;;;;;;5.90;3.90;;;;;;;;;;4935808;29;20219;-84
2023/11/15 00:56:21;;;;;;;4.70;3.90;;;;;;;;;;4927497;28;20587;-86
2023/11/15 00:58:47;;;;;;;5.73;3.37;;;;;;;;;;4975767;28;20221;-84
2023/11/15 01:01:14;;;;;;;3.40;2.70;;;;;;;;;;4970043;28;20290;-82
2023/11/15 01:03:55;;;;;;;4.63;3.23;;;;;;;;;;4946802;28;20312;-85
2023/11/15 01:06:24;;;;;;;3.60;3.07;;;;;;;;;;4946860;28;20251;-84
2023/11/15 01:08:50;;;;;;;4.50;3.10;;;;;;;;;;4926285;29;20230;-84
2023/11/15 01:11:17;;;;;;;4.20;3.23;;;;;;;;;;4936734;28;20329;-83
2023/11/15 01:13:46;;;;;;;4.60;3.13;;;;;;;;;;4920033;29;20218;-83
2023/11/15 01:16:18;;;;;;;4.03;3.40;;;;;;;;;;4919750;28;20301;-83
2023/11/15 01:18:43;;;;;;;5.10;3.83;;;;;;;;;;4937733;29;20615;-84
2023/11/15 01:21:11;;;;;;;8.00;3.30;;;;;;;;;;4935611;28;20219;-83
2023/11/15 01:23:39;;;;;;;5.87;3.83;;;;;;;;;;4935393;28;20222;-82
2023/11/15 01:26:06;;;;;;;4.13;3.50;;;;;;;;;;4920336;28;20650;-82
2023/11/15 01:28:35;;;;;;;5.50;4.23;;;;;;;;;;4932892;28;20239;-86
2023/11/15 01:31:01;;;;;;;4.40;3.90;;;;;;;;;;4920911;29;20226;-84
2023/11/15 01:33:29;;;;;;;4.07;3.70;;;;;;;;;;4922620;28;20223;-84
2023/11/15 01:35:54;;;;;;;5.70;4.07;;;;;;;;;;4935030;29;20249;-82
2023/11/15 01:38:20;;;;;;;5.17;4.27;;;;;;;;;;4937838;28;20238;-83
2023/11/15 01:40:47;;;;;;;5.23;4.37;;;;;;;;;;4937566;29;20229;-82
2023/11/15 01:43:16;;;;;;;4.60;4.20;;;;;;;;;;4937974;28;20242;-83
2023/11/15 01:45:46;;;;;;;4.80;4.40;;;;;;;;;;4923265;29;20228;-83
2023/11/15 01:48:14;;;;;;;4.77;4.13;;;;;;;;;;4919171;28;20959;-84
2023/11/15 01:50:39;;;;;;;4.83;4.43;;;;;;;;;;4919944;28;20226;-85
2023/11/15 01:53:05;;;;;;;5.00;4.60;;;;;;;;;;4902260;28;20723;-84
2023/11/15 01:55:30;;;;;;;5.40;5.00;;;;;;;;;;4934771;29;20223;-82
2023/11/15 01:57:56;;;;;;;5.60;5.10;;;;;;;;;;4933169;29;20250;-81
2023/11/15 02:00:22;;;;;;;5.30;4.80;;;;;;;;;;4934462;28;20563;-84
2023/11/15 02:02:48;;;;;;;5.30;4.80;;;;;;;;;;4937048;29;20226;-82
2023/11/15 02:05:14;;;;;;;5.13;4.53;;;;;;;;;;4959299;28;20286;-84
2023/11/15 02:07:40;;;;;;;4.77;4.37;;;;;;;;;;4936580;29;20235;-85
2023/11/15 02:10:07;;;;;;;4.83;4.40;;;;;;;;;;4934677;28;20211;-83
2023/11/15 02:12:35;;;;;;;5.23;4.73;;;;;;;;;;4924719;29;20245;-84
2023/11/15 02:15:01;;;;;;;4.97;4.57;;;;;;;;;;4939020;29;20230;-86
2023/11/15 02:17:26;;;;;;;8.30;4.33;;;;;;;;;;4915176;28;20231;-84
2023/11/15 02:19:52;;;;;;;4.10;3.70;;;;;;;;;;4926121;28;20278;-83
2023/11/15 02:22:20;;;;;;;4.63;4.23;;;;;;;;;;4931274;28;21067;-84
2023/11/15 02:24:46;;;;;;;4.23;3.80;;;;;;;;;;4918469;29;20230;-82
2023/11/15 02:27:14;;;;;;;5.73;4.07;;;;;;;;;;4934377;28;20223;-82
2023/11/15 02:29:39;;;;;;;4.30;3.90;;;;;;;;;;4936148;29;20271;-85
2023/11/15 02:32:06;;;;;;;3.77;3.40;;;;;;;;;;4925726;28;20227;-83
2023/11/15 02:34:36;;;;;;;7.10;3.63;;;;;;;;;;4937272;28;20226;-85
2023/11/15 02:37:02;;;;;;;3.70;3.40;;;;;;;;;;4923243;28;20219;-85
2023/11/15 02:39:30;;;;;;;3.60;3.27;;;;;;;;;;4935578;29;20235;-84
2023/11/15 02:41:56;;;;;;;5.97;3.53;;;;;;;;;;4941510;29;20222;-85
2023/11/15 02:44:23;;;;;;;3.83;3.47;;;;;;;;;;4946504;28;20210;-84
2023/11/15 02:46:51;;;;;;;4.63;3.80;;;;;;;;;;4938938;29;20270;-84
2023/11/15 02:49:20;;;;;;;4.63;3.40;;;;;;;;;;4975251;28;20286;-83
2023/11/15 02:51:49;;;;;;;4.23;3.60;;;;;;;;;;4948557;28;20231;-84
2023/11/15 02:54:16;;;;;;;4.97;3.60;;;;;;;;;;4973222;28;20247;-82
2023/11/15 02:56:44;;;;;;;3.53;3.10;;;;;;;;;;4942044;29;20215;-86
2023/11/15 02:59:10;;;;;;;3.97;3.37;;;;;;;;;;4945448;28;20282;-84
2023/11/15 03:01:35;;;;;;;4.17;3.87;;;;;;;;;;4939187;29;20237;-85
2023/11/15 03:04:03;;;;;;;4.87;4.03;;;;;;;;;;4927977;29;20224;-85
2023/11/15 03:06:29;;;;;;;5.20;3.90;;;;;;;;;;4927017;28;20223;-85
2023/11/15 03:08:56;;;;;;;4.70;4.03;;;;;;;;;;4942179;28;20706;-87
2023/11/15 03:11:22;;;;;;;5.97;3.93;;;;;;;;;;4944687;28;20219;-85
2023/11/15 03:13:52;;;;;;;4.07;3.77;;;;;;;;;;4937905;28;20222;-85
2023/11/15 03:16:17;;;;;;;6.27;4.30;;;;;;;;;;4963742;28;20222;-85
2023/11/15 03:18:43;;;;;;;7.70;4.20;;;;;;;;;;4966471;28;20745;-84
2023/11/15 03:21:11;;;;;;;4.00;3.63;;;;;;;;;;4949627;28;20223;-84
2023/11/15 03:23:39;;;;;;;4.37;3.97;;;;;;;;;;4980806;28;20253;-83
2023/11/15 03:26:07;;;;;;;4.23;3.83;;;;;;;;;;4930388;28;20218;-86
2023/11/15 03:28:33;;;;;;;4.43;4.03;;;;;;;;;;4958316;28;20217;-85
2023/11/15 03:30:59;;;;;;;4.20;3.80;;;;;;;;;;4971696;28;20226;-87
2023/11/15 03:33:29;;;;;;;4.63;4.20;;;;;;;;;;4932336;29;20217;-86
2023/11/15 03:35:57;;;;;;;5.37;4.17;;;;;;;;;;4955230;28;20223;-85
2023/11/15 03:38:25;;;;;;;6.13;5.03;;;;;;;;;;4968138;28;20225;-84
2023/11/15 03:40:51;;;;;;;6.17;4.90;;;;;;;;;;4926219;28;20277;-85
2023/11/15 03:43:21;;;;;;;5.77;5.27;;;;;;;;;;4923057;28;20317;-83
2023/11/15 03:45:46;;;;;;;11.63;8.57;;;;;;;;;;4941202;28;20317;-85
2023/11/15 03:48:12;;;;;;;7.27;5.90;;;;;;;;;;4938531;28;20317;-84
2023/11/15 03:50:40;;;;;;;6.33;5.57;;;;;;;;;;4938194;28;20226;-84
2023/11/15 03:53:05;;;;;;;5.87;5.13;;;;;;;;;;4934017;28;20253;-85
2023/11/15 03:55:33;;;;;;;6.30;5.50;;;;;;;;;;4956346;28;20228;-84
2023/11/15 03:57:59;;;;;;;6.50;5.73;;;;;;;;;;4969655;28;20861;-84
2023/11/15 04:04:11;;;;;;;7.53;5.57;;;;;;;;;;4959745;28;20280;-85
2023/11/15 04:06:42;;;;;;;8.33;5.33;;;;;;;;;;4948756;28;20215;-86
2023/11/15 04:09:10;;;;;;;5.73;5.23;;;;;;;;;;4955229;28;20215;-85
2023/11/15 04:11:36;;;;;;;5.93;5.27;;;;;;;;;;4941859;28;20692;-83
2023/11/15 04:14:05;;;;;;;8.30;5.23;;;;;;;;;;4942080;28;20229;-85
2023/11/15 04:16:33;;;;;;;6.20;5.60;;;;;;;;;;4932217;29;20238;-84
2023/11/15 04:19:01;;;;;;;8.70;5.03;;;;;;;;;;4919564;29;20258;-84
2023/11/15 04:21:31;;;;;;;6.53;5.33;;;;;;;;;;4956149;28;20247;-84
2023/11/15 04:23:57;;;;;;;6.73;5.63;;;;;;;;;;4958542;28;20223;-83
2023/11/15 04:26:25;;;;;;;5.47;4.97;;;;;;;;;;4960007;28;20222;-85
2023/11/15 04:28:51;;;;;;;6.57;5.23;;;;;;;;;;4955096;28;20225;-83
2023/11/15 04:31:20;;;;;;;5.77;5.13;;;;;;;;;;4955062;28;20233;-85
2023/11/15 04:33:46;;;;;;;6.50;5.50;;;;;;;;;;4972369;28;20226;-84
2023/11/15 04:36:14;;;;;;;5.83;5.17;;;;;;;;;;4939389;28;20223;-84
2023/11/15 04:38:40;;;;;;;5.30;4.80;;;;;;;;;;4975622;28;20225;-85
2023/11/15 04:41:06;;;;;;;6.20;4.73;;;;;;;;;;4941801;28;20589;-83
2023/11/15 04:43:33;;;;;;;5.90;4.93;;;;;;;;;;4959941;28;20232;-82
2023/11/15 04:45:58;;;;;;;7.23;5.20;;;;;;;;;;4961273;28;20221;-84
2023/11/15 04:48:24;;;;;;;5.27;4.87;;;;;;;;;;4977147;28;20210;-82
2023/11/15 04:50:54;;;;;;;5.50;4.93;;;;;;;;;;4966052;28;20267;-82
2023/11/15 04:53:20;;;;;;;5.50;5.00;;;;;;;;;;4942212;28;20223;-78
2023/11/15 04:55:45;;;;;;;5.47;4.97;;;;;;;;;;4958044;28;20237;-79
2023/11/15 04:58:13;;;;;;;5.60;5.10;;;;;;;;;;4953464;28;20227;-79
2023/11/15 05:00:42;;;;;;;5.63;4.33;;;;;;;;;;4924294;28;20254;-78
2023/11/15 05:03:07;;;;;;;5.60;4.40;;;;;;;;;;4958084;28;20599;-79
2023/11/15 05:05:33;;;;;;;5.57;4.73;;;;;;;;;;4959340;28;20230;-79
2023/11/15 05:08:01;;;;;;;4.63;4.23;;;;;;;;;;4977451;28;20214;-78
2023/11/15 05:10:26;;;;;;;7.20;5.40;;;;;;;;;;4960440;28;20222;-77
2023/11/15 05:12:52;;;;;;;6.40;4.80;;;;;;;;;;4976459;28;20630;-79
2023/11/15 05:15:17;;;;;;;6.90;5.20;;;;;;;;;;4939795;28;20210;-80
2023/11/15 05:17:43;;;;;;;6.13;5.53;;;;;;;;;;4937781;28;20237;-79
2023/11/15 05:20:12;;;;;;;6.77;5.33;;;;;;;;;;4964614;28;20250;-79
2023/11/15 05:22:37;;;;;;;6.23;5.63;;;;;;;;;;4965942;28;20580;-79
2023/11/15 05:25:05;;;;;;;6.23;5.60;;;;;;;;;;4958132;28;20234;-79
2023/11/15 05:27:33;;;;;;;6.37;5.53;;;;;;;;;;4961783;28;20229;-79
2023/11/15 05:30:01;;;;;;;6.00;5.40;;;;;;;;;;4958463;28;20215;-79
2023/11/15 05:32:27;;;;;;;8.47;5.90;;;;;;;;;;4961474;28;20238;-78
2023/11/15 05:34:52;;;;;;;6.63;5.27;;;;;;;;;;4974113;28;20222;-79
2023/11/15 05:37:18;;;;;;;6.70;5.67;;;;;;;;;;4970451;28;20231;-80
2023/11/15 05:39:43;;;;;;;5.80;5.27;;;;;;;;;;4973743;28;20226;-79
2023/11/15 05:42:11;;;;;;;6.03;5.47;;;;;;;;;;4994601;28;20229;-80
2023/11/15 05:44:37;;;;;;;7.83;6.20;;;;;;;;;;4972126;28;20222;-78
2023/11/15 05:47:03;;;;;;;7.03;5.87;;;;;;;;;;4992623;28;20225;-77
2023/11/15 05:49:30;;;;;;;5.47;4.83;;;;;;;;;;4972447;28;20250;-78
2023/11/15 05:51:56;;;;;;;6.40;4.87;;;;;;;;;;4968099;28;20257;-80
2023/11/15 05:54:22;;;;;;;6.97;5.33;;;;;;;;;;4961844;28;20411;-79
2023/11/15 05:56:49;;;;;;;8.07;5.77;;;;;;;;;;4953942;28;20290;-79
2023/11/15 05:59:15;;;;;;;9.63;8.77;;;;;;;;;;4971226;28;20880;-79
2023/11/15 06:01:40;;;;;;;6.53;5.27;;;;;;;;;;4956756;28;20222;-79
2023/11/15 06:04:10;;;;;;;7.90;5.87;;;;;;;;;;4955184;28;20215;-78
2023/11/15 06:06:38;;;;;;;5.77;5.27;;;;;;;;;;4963229;28;20238;-79
2023/11/15 06:09:04;;;;;;;7.67;5.23;;;;;;;;;;4958781;28;20291;-79
2023/11/15 06:11:30;;;;;;;6.80;5.77;;;;;;;;;;4971026;28;20241;-80
2023/11/15 06:14:00;;;;;;;5.67;5.20;;;;;;;;;;4926820;28;20222;-80
2023/11/15 06:16:26;;;;;;;6.83;5.03;;;;;;;;;;4956803;28;20663;-80
2023/11/15 06:18:54;;;;;;;6.47;4.90;;;;;;;;;;4958818;28;20226;-79
2023/11/15 06:21:20;;;;;;;6.57;5.20;;;;;;;;;;4954375;28;20735;-79
2023/11/15 06:23:46;;;;;;;7.07;5.57;;;;;;;;;;4913037;28;20254;-79
2023/11/15 06:26:12;;;;;;;8.47;5.43;;;;;;;;;;4969470;28;20900;-80
2023/11/15 06:28:38;;;;;;;7.47;5.67;;;;;;;;;;4953721;28;20214;-79
2023/11/15 06:31:07;;;;;;;6.20;5.53;;;;;;;;;;4956168;28;20293;-79
2023/11/15 06:33:33;;;;;;;6.97;5.20;;;;;;;;;;4949758;29;20768;-79
2023/11/15 06:35:58;;;;;;;6.67;5.20;;;;;;;;;;4973035;28;20222;-78
2023/11/15 06:38:24;;;;;;;5.63;5.00;;;;;;;;;;4946082;28;20703;-80
2023/11/15 06:40:49;;;;;;;7.40;5.50;;;;;;;;;;4946616;28;20226;-79
2023/11/15 06:43:19;;;;;;;5.83;5.20;;;;;;;;;;4972846;28;20221;-80
2023/11/15 06:45:45;;;;;;;6.13;5.53;;;;;;;;;;4944847;28;20251;-79
2023/11/15 06:48:12;;;;;;;5.07;4.67;;;;;;;;;;4960738;28;20308;-79
2023/11/15 06:50:37;;;;;;;6.17;5.20;;;;;;;;;;4942237;28;20257;-79
2023/11/15 06:53:05;;;;;;;5.70;4.70;;;;;;;;;;4933620;29;20222;-79
2023/11/15 06:55:31;;;;;;;6.40;5.00;;;;;;;;;;4922303;29;20608;-79
2023/11/15 06:57:57;;;;;;;9.37;4.63;;;;;;;;;;4962338;28;20222;-79
2023/11/15 07:00:25;;;;;;;5.30;4.80;;;;;;;;;;4968200;28;20630;-79
2023/11/15 07:02:53;;;;;;;4.83;4.33;;;;;;;;;;4955727;28;20222;-79
2023/11/15 07:05:22;;;;;;;6.93;4.63;;;;;;;;;;4940306;28;20237;-78
2023/11/15 07:07:47;;;;;;;5.20;4.40;;;;;;;;;;4924721;28;20629;-79
2023/11/15 07:10:15;;;;;;;5.00;4.53;;;;;;;;;;4935944;28;20230;-81
2023/11/15 07:12:40;;;;;;;5.27;4.77;;;;;;;;;;4971270;28;20309;-80
2023/11/15 07:15:13;;;;;;;6.07;4.40;;;;;;;;;;4941965;28;20297;-79
2023/11/15 07:17:38;;;;;;;5.17;4.23;;;;;;;;;;4956460;28;20226;-79
2023/11/15 07:20:09;;;;;;;4.17;3.67;;;;;;;;;;4956528;28;20301;-80
2023/11/15 07:22:36;;;;;;;4.97;4.57;;;;;;;;;;4953101;28;20643;-80
2023/11/15 07:25:03;;;;;;;5.83;4.53;;;;;;;;;;4904335;29;20215;-80
2023/11/15 07:27:31;;;;;;;6.03;4.70;;;;;;;;;;4951962;28;20657;-80
2023/11/15 07:29:58;;;;;;;7.07;5.10;;;;;;;;;;4937871;29;20620;-80
2023/11/15 07:32:25;;;;;;;9.40;5.37;;;;;;;;;;4954575;28;20226;-79
2023/11/15 07:34:51;;;;;;;5.90;5.30;;;;;;;;;;4940207;28;20218;-79
2023/11/15 07:37:19;;;;;;;7.17;5.60;;;;;;;;;;4953390;28;20226;-79
2023/11/15 07:39:47;;;;;;;6.63;5.93;;;;;;;;;;4932380;29;20230;-78
2023/11/15 07:42:17;;;;;;;6.73;6.13;;;;;;;;;;4951026;28;20227;-79
2023/11/15 07:44:43;;;;;;;6.50;5.90;;;;;;;;;;4935632;28;20656;-81
2023/11/15 07:47:10;;;;;;;6.60;5.90;;;;;;;;;;4936300;28;20623;-79
2023/11/15 07:49:36;;;;;;;8.67;6.80;;;;;;;;;;4905413;29;20306;-79
2023/11/15 07:52:02;;;;;;;8.50;6.80;;;;;;;;;;4940263;29;20245;-78
2023/11/15 07:54:27;;;;;;;6.87;6.17;;;;;;;;;;4939726;29;20303;-78
2023/11/15 07:56:53;;;;;;;8.37;6.17;;;;;;;;;;4917992;29;20234;-79
2023/11/15 07:59:21;;;;;;;9.13;6.93;;;;;;;;;;4922092;28;20238;-79
2023/11/15 08:01:48;;;;;;;9.60;7.70;;;;;;;;;;4932231;29;20314;-79
2023/11/15 08:04:16;;;;;;;8.83;7.53;;;;;;;;;;4929277;28;20244;-79
2023/11/15 08:06:42;;;;;;;9.37;7.30;;;;;;;;;;4946776;29;20249;-79
2023/11/15 08:09:26;;;;;;;10.53;7.63;;;;;;;;;;4930369;28;20225;-80
2023/11/15 08:11:53;;;;;;;10.50;7.13;;;;;;;;;;4930386;29;20230;-81
2023/11/15 08:14:19;;;;;;;9.27;7.17;;;;;;;;;;4939959;28;20227;-78
2023/11/15 08:16:48;;;;;;;10.27;7.63;;;;;;;;;;4942717;29;20273;-79
2023/11/15 08:19:14;;;;;;;8.33;7.43;;;;;;;;;;4941063;28;20890;-79
2023/11/15 08:21:39;;;;;;;8.07;7.20;;;;;;;;;;4913143;29;20246;-78
2023/11/15 08:24:09;;;;;;;8.27;7.47;;;;;;;;;;4938794;29;20231;-79
2023/11/15 08:26:35;;;;;;;8.67;7.83;;;;;;;;;;4947617;28;20634;-78
2023/11/15 08:29:02;;;;;;;7.60;6.90;;;;;;;;;;4911061;29;20297;-79
2023/11/15 08:31:28;;;;;;;8.53;7.83;;;;;;;;;;4940433;28;20684;-79
2023/11/15 08:33:54;;;;;;;9.10;8.20;;;;;;;;;;4914531;29;20234;-78
2023/11/15 08:36:19;;;;;;;8.47;7.60;;;;;;;;;;4916153;29;20231;-77
2023/11/15 08:38:47;;;;;;;9.13;7.50;;;;;;;;;;4929267;29;20222;-77
2023/11/15 08:41:18;;;;;;;9.20;7.23;;;;;;;;;;4919383;28;20254;-78
2023/11/15 08:43:46;;;;;;;7.70;6.83;;;;;;;;;;4944658;28;20234;-77
2023/11/15 08:46:16;;;;;;;8.60;7.63;;;;;;;;;;4931782;28;20223;-78
2023/11/15 08:48:42;;;;;;;8.77;6.60;;;;;;;;;;4960184;28;20218;-78
2023/11/15 08:51:10;;;;;;;6.30;5.80;;;;;;;;;;4985141;28;20233;-78
2023/11/15 08:53:39;;;;;;;6.57;5.90;;;;;;;;;;4984042;28;20207;-77
2023/11/15 08:56:07;;;;;;;6.83;6.23;;;;;;;;;;4968199;28;20219;-79
2023/11/15 08:58:37;;;;;;;6.70;6.00;;;;;;;;;;4981872;28;20284;-77
2023/11/15 09:01:03;;;;;;;6.97;5.27;;;;;;;;;;4980010;28;20254;-78
2023/11/15 09:03:28;;;;;;;5.43;4.90;;;;;;;;;;4956756;28;20258;-77
2023/11/15 09:05:59;;;;;;;6.33;5.33;;;;;;;;;;4968853;28;21018;-78
2023/11/15 09:08:25;;;;;;;5.80;5.30;;;;;;;;;;4961268;28;20247;-79
2023/11/15 09:10:51;;;;;;;6.00;4.90;;;;;;;;;;4966650;28;20730;-79
2023/11/15 09:13:18;;;;;;;8.07;4.90;;;;;;;;;;4952257;28;20642;-78
2023/11/15 09:15:47;;;;;;;5.57;4.40;;;;;;;;;;4962355;28;20218;-79
2023/11/15 09:18:19;;;;;;;4.67;4.27;;;;;;;;;;4947350;28;20876;-78
2023/11/15 09:20:47;;;;;;;5.00;4.10;;;;;;;;;;4968104;28;20266;-77
2023/11/15 09:23:13;;;;;;;4.77;4.37;;;;;;;;;;4978509;28;20230;-79
2023/11/15 09:25:41;;;;;;;5.40;4.30;;;;;;;;;;4976185;28;20230;-79
2023/11/15 09:28:10;;;;;;;4.30;3.90;;;;;;;;;;4947773;28;20363;-79
2023/11/15 09:30:36;;;;;;;4.40;4.00;;;;;;;;;;4948347;28;20318;-79
2023/11/15 09:33:05;;;;;;;6.93;3.50;;;;;;;;;;4936241;28;20878;-78
2023/11/15 09:35:35;;;;;;;5.43;3.20;;;;;;;;;;4961908;28;20222;-78
2023/11/15 09:38:00;;;;;;;3.60;3.10;;;;;;;;;;4949245;28;20282;-79
2023/11/15 09:40:26;;;;;;;4.30;3.23;;;;;;;;;;4945311;28;20637;-80
2023/11/15 09:42:53;;;;;;;3.60;2.70;;;;;;;;;;4968993;28;20217;-78
2023/11/15 09:45:24;;;;;;;5.23;2.67;;;;;;;;;;4975265;28;20264;-78
2023/11/15 09:47:53;;;;;;;2.73;2.30;;;;;;;;;;4970524;28;20313;-80
2023/11/15 09:50:23;;;;;;;2.30;1.80;;;;;;;;;;4951249;28;20218;-78
2023/11/15 09:52:49;;;;;;;2.43;2.13;;;;;;;;;;4959339;28;20738;-79
2023/11/15 09:55:24;;;;;;;2.93;1.90;;;;;;;;;;4964227;28;20222;-78
2023/11/15 09:57:51;;;;;;;3.03;2.17;;;;;;;;;;4966252;28;20226;-78
2023/11/15 10:00:20;;;;;;;2.80;2.30;;;;;;;;;;4955448;28;20226;-77
2023/11/15 10:02:52;;;;;;;2.73;1.90;;;;;;;;;;4962839;28;20246;-77
2023/11/15 10:05:23;;;;;;;1.93;1.67;;;;;;;;;;4974997;28;20250;-77
2023/11/15 10:08:17;;;;;;;1.90;1.80;;;;;;;;;;4972708;28;20230;-78
2023/11/15 10:10:47;;;;;;;2.63;2.13;;;;;;;;;;4966153;28;20226;-77
2023/11/15 10:13:15;;;;;;;2.10;1.93;;;;;;;;;;4950208;28;20305;-77
2023/11/15 10:15:43;;;;;;;2.27;2.13;;;;;;;;;;4959476;28;20238;-78
2023/11/15 10:18:11;;;;;;;3.90;2.60;;;;;;;;;;4943878;28;20590;-78
2023/11/15 10:20:37;;;;;;;3.23;2.43;;;;;;;;;;4951963;28;20230;-78
2023/11/15 10:23:03;;;;;;;3.93;2.63;;;;;;;;;;4957047;28;20226;-78
2023/11/15 10:25:28;;;;;;;4.83;2.37;;;;;;;;;;4965946;28;20235;-78
2023/11/15 10:28:04;;;;;;;3.20;2.90;;;;;;;;;;4941917;28;21123;-78
2023/11/15 10:30:29;;;;;;;3.07;2.87;;;;;;;;;;4950074;28;20227;-79
2023/11/15 10:33:10;;;;;;;3.97;3.63;;;;;;;;;;4946796;28;20277;-79
2023/11/15 10:35:38;;;;;;;5.40;3.10;;;;;;;;;;4948799;28;20253;-77
2023/11/15 10:38:14;;;;;;;3.53;3.23;;;;;;;;;;4947950;28;20605;-78
2023/11/15 10:40:46;;;;;;;5.30;2.83;;;;;;;;;;4961653;28;20225;-77
2023/11/15 10:43:13;;;;;;;2.80;2.50;;;;;;;;;;4945872;28;20244;-77
2023/11/15 10:45:40;;;;;;;2.80;2.60;;;;;;;;;;4930543;28;20734;-78
2023/11/15 10:48:08;;;;;;;4.13;2.53;;;;;;;;;;4949847;28;20239;-78
2023/11/15 10:50:34;;;;;;;3.23;2.23;;;;;;;;;;4970102;28;20232;-77
2023/11/15 10:53:00;;;;;;;2.53;2.33;;;;;;;;;;4945067;28;20746;-77
2023/11/15 10:55:29;;;;;;;3.80;2.10;;;;;;;;;;4959091;28;20329;-77
2023/11/15 10:58:00;;;;;;;2.20;2.00;;;;;;;;;;4946368;28;20218;-78
2023/11/15 11:00:34;;;;;;;3.37;2.20;;;;;;;;;;4964367;28;20222;-78
2023/11/15 11:03:00;;;;;;;2.93;2.20;;;;;;;;;;4959321;28;20219;-77
2023/11/15 11:05:48;;;;;;;2.83;2.00;;;;;;;;;;4915758;28;20306;-78
2023/11/15 11:08:29;;;;;;;3.03;2.20;;;;;;;;;;4932684;28;20331;-77
2023/11/15 11:11:10;;;;;;;3.50;2.40;;;;;;;;;;4941616;28;20235;-77
2023/11/15 11:13:36;;;;;;;2.20;2.00;;;;;;;;;;4966078;28;20248;-77
2023/11/15 11:16:28;;;;;;;2.80;2.60;;;;;;;;;;4949396;28;20748;-79
2023/11/15 11:19:09;;;;;;;2.60;2.40;;;;;;;;;;4976253;28;20700;-78
2023/11/15 11:22:06;;;;;;;3.03;2.50;;;;;;;;;;4953909;28;20252;-79
2023/11/15 11:25:06;;;;;;;5.70;3.10;;;;;;;;;;4961281;28;20703;-77
2023/11/15 11:27:37;;;;;;;2.87;2.67;;;;;;;;;;4953244;28;20233;-78
2023/11/15 11:30:12;;;;;;;2.30;2.10;;;;;;;;;;4943942;28;20226;-78
2023/11/15 11:32:44;;;;;;;2.80;2.10;;;;;;;;;;4944604;28;20237;-79
2023/11/15 11:35:13;;;;;;;2.47;2.20;;;;;;;;;;4934105;28;20220;-79
2023/11/15 11:37:44;;;;;;;5.10;2.30;;;;;;;;;;4944499;28;20223;-79
2023/11/15 11:40:32;;;;;;;2.37;2.17;;;;;;;;;;4931370;28;20247;-79
2023/11/15 11:43:37;;;;;;;5.33;3.50;;;;;;;;;;4945749;28;20249;-78
2023/11/15 11:46:15;;;;;;;2.73;1.90;;;;;;;;;;4858698;29;20254;-78
2023/11/15 11:48:42;;;;;;;2.00;1.90;;;;;;;;;;4886023;29;20643;-79
2023/11/15 11:51:07;;;;;;;3.60;2.20;;;;;;;;;;4908465;28;20684;-78
2023/11/15 11:53:37;;;;;;;2.27;1.67;;;;;;;;;;4945648;28;20230;-79
2023/11/15 11:56:06;;;;;;;2.27;2.07;;;;;;;;;;4934669;28;20605;-79
2023/11/15 11:58:36;;;;;;;2.50;2.30;;;;;;;;;;4950652;28;20594;-79
2023/11/15 12:01:08;;;;;;;3.07;2.20;;;;;;;;;;4956419;28;20230;-79
2023/11/15 12:03:35;;;;;;;4.73;2.30;;;;;;;;;;4927045;28;20229;-79
2023/11/15 12:06:11;;;;;;;2.67;2.43;;;;;;;;;;4944725;28;20241;-78
2023/11/15 12:08:40;;;;;;;2.20;2.03;;;;;;;;;;4950760;28;20222;-78
2023/11/15 12:11:10;;;;;;;2.10;2.00;;;;;;;;;;4975997;28;20226;-78
2023/11/15 12:13:47;;;;;;;3.27;2.97;;;;;;;;;;4942378;28;20604;-79
2023/11/15 12:16:17;;;;;;;3.37;3.07;;;;;;;;;;4942234;28;20230;-78
2023/11/15 12:19:05;;;;;;;2.40;2.20;;;;;;;;;;4929031;28;20257;-79
2023/11/15 12:21:32;;;;;;;2.63;2.13;;;;;;;;;;4912289;29;20235;-78
2023/11/15 12:23:58;;;;;;;2.67;2.43;;;;;;;;;;4915624;29;20222;-77
2023/11/15 12:26:25;;;;;;;2.83;2.30;;;;;;;;;;4947438;29;20720;-79
2023/11/15 12:28:53;;;;;;;3.30;2.80;;;;;;;;;;4943350;28;20263;-78
2023/11/15 12:31:18;;;;;;;3.27;2.97;;;;;;;;;;4926287;29;20302;-77
2023/11/15 12:33:44;;;;;;;4.80;3.43;;;;;;;;;;4929127;29;20234;-78
2023/11/15 12:36:15;;;;;;;3.70;2.57;;;;;;;;;;4956630;28;20219;-77
2023/11/15 12:38:56;;;;;;;2.80;2.57;;;;;;;;;;4974810;28;20628;-79
2023/11/15 12:41:26;;;;;;;2.73;2.53;;;;;;;;;;4935561;28;20230;-79
2023/11/15 12:44:01;;;;;;;3.30;2.63;;;;;;;;;;4947954;28;20218;-78
2023/11/15 12:46:27;;;;;;;4.00;2.70;;;;;;;;;;4949769;28;20232;-78
2023/11/15 12:48:52;;;;;;;2.73;2.37;;;;;;;;;;4935645;28;20864;-78
2023/11/15 12:51:18;;;;;;;5.83;2.80;;;;;;;;;;4961532;28;20227;-79
2023/11/15 12:53:44;;;;;;;3.13;2.83;;;;;;;;;;4948540;28;20719;-77
2023/11/15 12:56:18;;;;;;;3.67;3.00;;;;;;;;;;4960461;28;20226;-79
2023/11/15 12:58:44;;;;;;;3.10;2.80;;;;;;;;;;4960485;28;21277;-78
2023/11/15 13:01:16;;;;;;;3.27;2.97;;;;;;;;;;4942746;28;20234;-79
2023/11/15 13:03:45;;;;;;;2.90;2.70;;;;;;;;;;4951135;28;20231;-81
2023/11/15 13:06:17;;;;;;;3.03;2.73;;;;;;;;;;4959732;28;20222;-80
2023/11/15 13:08:46;;;;;;;11.30;8.43;;;;;;;;;;4959570;28;20223;-79
2023/11/15 13:11:18;;;;;;;8.10;7.20;;;;;;;;;;4966347;28;20768;-80
2023/11/15 13:13:48;;;;;;;6.30;4.43;;;;;;;;;;4950829;28;20217;-79
2023/11/15 13:16:16;;;;;;;5.67;5.13;;;;;;;;;;4962311;28;20234;-80
2023/11/15 13:18:43;;;;;;;3.30;3.00;;;;;;;;;;4951740;28;20786;-80
2023/11/15 13:21:11;;;;;;;7.73;6.70;;;;;;;;;;4958123;28;20235;-80
2023/11/15 13:23:41;;;;;;;5.00;4.50;;;;;;;;;;4957725;28;20338;-79
2023/11/15 13:26:14;;;;;;;4.10;3.70;;;;;;;;;;4963085;28;20230;-78
2023/11/15 13:28:47;;;;;;;4.67;3.37;;;;;;;;;;4978659;28;20574;-78
2023/11/15 13:31:13;;;;;;;4.63;3.97;;;;;;;;;;4953094;28;20229;-80
2023/11/15 13:33:39;;;;;;;8.90;6.10;;;;;;;;;;4960095;28;20218;-79
2023/11/15 13:36:07;;;;;;;6.83;6.00;;;;;;;;;;4976364;28;20401;-80
2023/11/15 13:38:33;;;;;;;3.90;3.60;;;;;;;;;;4952715;28;20308;-79
2023/11/15 13:41:07;;;;;;;4.00;3.10;;;;;;;;;;4971626;28;20238;-79
2023/11/15 13:43:34;;;;;;;5.70;3.43;;;;;;;;;;4963019;28;20221;-79
2023/11/15 13:45:59;;;;;;;5.00;4.50;;;;;;;;;;4978459;28;20215;-78
2023/11/15 13:48:25;;;;;;;6.30;5.53;;;;;;;;;;4959900;28;20766;-79
2023/11/15 13:50:50;;;;;;;3.57;3.10;;;;;;;;;;4978333;28;20228;-80
2023/11/15 13:53:20;;;;;;;3.43;2.77;;;;;;;;;;4959972;28;20763;-77
2023/11/15 13:55:46;;;;;;;4.00;3.20;;;;;;;;;;4962734;28;20226;-78
2023/11/15 13:58:16;;;;;;;5.37;3.30;;;;;;;;;;4947564;28;20285;-80
2023/11/15 14:00:44;;;;;;;5.10;2.57;;;;;;;;;;4947164;28;20238;-79
2023/11/15 14:03:13;;;;;;;3.90;2.80;;;;;;;;;;4944753;28;20219;-78
2023/11/15 14:05:43;;;;;;;3.83;2.83;;;;;;;;;;4947095;28;20222;-78
2023/11/15 14:08:09;;;;;;;3.77;2.23;;;;;;;;;;4960081;28;20286;-80
2023/11/15 14:10:41;;;;;;;3.57;2.73;;;;;;;;;;4964523;28;20381;-79
2023/11/15 14:13:08;;;;;;;3.60;3.07;;;;;;;;;;4972733;28;20223;-79
2023/11/15 14:15:34;;;;;;;3.30;2.90;;;;;;;;;;4952181;28;20313;-78
2023/11/15 14:18:03;;;;;;;2.57;2.37;;;;;;;;;;4953683;28;20233;-78
2023/11/15 14:20:31;;;;;;;5.87;2.93;;;;;;;;;;4964937;28;20592;-78
2023/11/15 14:22:57;;;;;;;5.00;2.40;;;;;;;;;;4961036;28;20284;-79
2023/11/15 14:25:23;;;;;;;2.80;2.33;;;;;;;;;;4947490;28;20234;-80
2023/11/15 14:27:49;;;;;;;3.70;2.87;;;;;;;;;;4941898;28;20233;-80
2023/11/15 14:30:16;;;;;;;5.60;2.27;;;;;;;;;;4967984;28;20693;-79
2023/11/15 14:32:42;;;;;;;3.90;2.63;;;;;;;;;;4962760;28;20284;-80
2023/11/15 14:35:09;;;;;;;6.33;3.90;;;;;;;;;;4966090;28;20226;-79
2023/11/15 14:37:35;;;;;;;6.53;4.67;;;;;;;;;;4966944;28;20245;-79
2023/11/15 14:40:06;;;;;;;4.23;3.83;;;;;;;;;;4957013;28;20890;-79
2023/11/15 14:42:35;;;;;;;3.77;3.10;;;;;;;;;;4972873;28;20231;-78
2023/11/15 14:45:01;;;;;;;2.40;2.17;;;;;;;;;;4941691;28;21191;-77
2023/11/15 14:47:29;;;;;;;2.90;2.60;;;;;;;;;;4917726;28;20219;-78
2023/11/15 14:49:58;;;;;;;3.00;2.70;;;;;;;;;;4947798;29;20314;-77
2023/11/15 14:52:33;;;;;;;4.57;2.50;;;;;;;;;;4941507;28;20235;-77
2023/11/15 14:55:04;;;;;;;2.23;2.07;;;;;;;;;;4942208;29;20257;-78